Airfield :
LOGIN :

Register | Disclaimer

   EN    FR    IT 

 










Legend :    VFR   Marginal VFR   IFR   Intensive IFR   Very Intensive IFR
Visi :
Ceiling :
>= 8 km
>= 3000ft
5 to 8 km
1000 to 3000 ft
1500m to 5 km
500 to 1000 ft
800 to 1500m
200 to 500 ft
< 800m
< 200 ft
Symbols :   Thunderstorms  Fog  Heavy snow  Heavy precipitations  Wind > 20 kt
SIGMETs :     Misc.  Thunderstorms  Icing  Turbulence  Mountain Waves  Volcanic Ashes






- Airport Elevation : 1071 ft
- IATA code : LWO


UKLL - L'viv

CURRENT METAR :
  • 300630Z 33007MPS 6000 -SHSN BKN009 BKN020CB M01/M01 Q1016 R31/290055 TEMPO BKN007

EXPIRED METARs :
  • 300600Z 33007MPS 9000 -SHSN BKN009 BKN020CB M01/M01 Q1015 R31/290055 TEMPO BKN007
  • 300530Z 33006MPS 7000 -SHSN BKN008 BKN020CB M01/M01 Q1015 R31/290055 TEMPO BKN007
  • 300500Z 33005MPS 6000 -SHSN BKN008 BKN020CB M01/M01 Q1015 R31/290055 TEMPO BKN007
  • 300454Z 33006MPS 4200 -SHSN BKN008 BKN020CB M01/M01 Q1015 R31/290055 TEMPO 0800 +SHSN BKN004
  • 300441Z 33006MPS 1800 1200S R31/1200D SHSN BKN008 BKN020CB M01/M01 Q1015 R31/290055 TEMPO BKN007
  • 300436Z 34006MPS 6000 2800NW -SHSN BKN008 BKN020CB M00/M01 Q1015 R31/290055 TEMPO BKN007
  • 300430Z 33006MPS 7000 -SHSN BKN008 BKN020CB M00/M01 Q1015 R31/290055 TEMPO BKN007
  • 300400Z 33006MPS 2700 -SHRASN BKN007 BKN020CB 00/00 Q1014 R31/CLRD// TEMPO BKN007
  • 300348Z 33006MPS 5000 -RASN OVC010 01/00 Q1014 R31/D NOSIG

TAF TAF UKLL
Valid from the 30 at 06:00 until the 31 at 06:00 UTC


300504Z 3006/3106 33006MPS 6000 BKN007 SCT020CB TXM01/3006Z TNM04/3103Z
TEMPO 3006/3008 34007G14MPS 0600 +SHSN BKN003 BKN015CB
TEMPO 3008/3012 2100 -SHSN BKN015CB
BECMG 3012/3014 31004MPS BKN020



MET'MAP, your aeronautical weather chart ! - Copyright ORBIFLY December 2007 - Disclaimer

ORBIFLY MET'MAP TEAM :

Programming & Development : Alexandra Zaïnal
Concept & original design : Baudouin d'Aumeries
Assistance for programming : Marc-Olivier Méhu
Technical & hardware support : Manuel Goepfert

Contact : metmap@orbifly.com




SOURCES & CREDITS :

   NOAA